createdAt,value
2022-08-16T00:01:26.500Z,30.75
2022-08-16T00:03:58.178Z,30.84
2022-08-16T00:06:26.881Z,30.78
2022-08-16T00:08:55.482Z,30.79
2022-08-16T00:11:24.498Z,30.80
2022-08-16T00:13:55.466Z,30.78
2022-08-16T00:17:01.478Z,30.65
2022-08-16T00:19:22.900Z,30.68
2022-08-16T00:22:01.438Z,30.70
2022-08-16T00:24:32.959Z,30.72
2022-08-16T00:27:05.719Z,30.69
2022-08-16T00:29:42.318Z,30.70
2022-08-16T00:32:18.244Z,30.64
2022-08-16T00:34:53.024Z,30.64
2022-08-16T00:37:56.607Z,30.56
2022-08-16T00:40:36.615Z,30.47
2022-08-16T00:43:12.173Z,30.50
2022-08-16T00:45:59.938Z,30.51
2022-08-16T00:48:44.097Z,30.47
2022-08-16T00:51:20.547Z,30.49
2022-08-16T00:53:53.533Z,30.50
2022-08-16T00:56:58.262Z,30.44
2022-08-16T01:01:58.212Z,30.39
2022-08-16T01:04:30.009Z,30.46
2022-08-16T01:07:02.834Z,30.50
2022-08-16T01:09:34.262Z,30.48
2022-08-16T01:12:08.505Z,30.53
2022-08-16T01:14:48.100Z,30.52
2022-08-16T01:17:20.094Z,30.53
2022-08-16T01:20:00.637Z,30.55
2022-08-16T01:22:52.796Z,30.57
2022-08-16T01:25:34.433Z,30.56
2022-08-16T01:28:10.563Z,30.56
2022-08-16T01:30:55.670Z,30.61
2022-08-16T01:33:24.747Z,30.60
2022-08-16T01:36:11.589Z,30.54
2022-08-16T01:38:49.293Z,30.56
2022-08-16T01:41:31.487Z,30.55
2022-08-16T01:44:03.124Z,30.51
2022-08-16T01:46:39.696Z,30.49
2022-08-16T01:49:19.443Z,30.49
2022-08-16T01:51:54.442Z,30.44
2022-08-16T01:54:30.483Z,30.43
2022-08-16T01:57:01.721Z,30.43
2022-08-16T02:02:52.427Z,30.35
2022-08-16T02:05:25.587Z,30.30
2022-08-16T02:08:03.584Z,30.29
2022-08-16T02:10:33.903Z,30.28
2022-08-16T02:13:06.175Z,30.29
2022-08-16T02:15:42.478Z,30.28
2022-08-16T02:18:18.773Z,30.28
2022-08-16T02:21:04.280Z,30.25
2022-08-16T02:23:49.417Z,30.17
2022-08-16T02:26:26.033Z,30.24
2022-08-16T02:28:57.489Z,30.18
2022-08-16T02:32:03.986Z,30.14
2022-08-16T02:34:32.932Z,30.16
2022-08-16T02:37:09.888Z,30.13
2022-08-16T02:39:39.628Z,30.08
2022-08-16T02:42:10.468Z,30.06
2022-08-16T02:44:42.337Z,30.10
2022-08-16T02:47:11.393Z,30.10
2022-08-16T02:49:59.070Z,30.04
2022-08-16T02:52:44.130Z,29.92
2022-08-16T02:55:15.596Z,29.97
2022-08-16T02:57:53.980Z,29.90
2022-08-16T03:00:31.921Z,29.86
2022-08-16T03:03:03.660Z,29.88
2022-08-16T03:05:31.867Z,29.87
2022-08-16T03:08:02.093Z,29.85
2022-08-16T03:10:34.836Z,29.80
2022-08-16T03:13:03.537Z,29.79
2022-08-16T03:15:41.217Z,29.69
2022-08-16T03:18:12.618Z,29.70
2022-08-16T03:20:55.873Z,29.77
2022-08-16T03:23:23.982Z,29.75
2022-08-16T03:25:54.250Z,29.63
2022-08-16T03:28:23.606Z,29.69
2022-08-16T03:30:52.140Z,29.64
2022-08-16T03:33:24.371Z,29.57
2022-08-16T03:36:30.403Z,29.50
2022-08-16T03:38:52.610Z,29.56
2022-08-16T03:41:25.293Z,29.53
2022-08-16T03:43:58.391Z,29.53
2022-08-16T03:46:44.997Z,29.50
2022-08-16T03:49:22.546Z,29.45
2022-08-16T03:51:54.831Z,29.42
2022-08-16T03:54:28.457Z,29.44
2022-08-16T03:56:59.008Z,29.46
2022-08-16T03:59:32.393Z,29.46
2022-08-16T04:02:12.231Z,29.46
2022-08-16T04:04:50.670Z,29.49
2022-08-16T04:07:19.781Z,29.50
2022-08-16T04:09:48.502Z,29.45
2022-08-16T04:12:54.778Z,29.46
2022-08-16T04:15:07.827Z,29.48
2022-08-16T04:17:40.829Z,29.32
2022-08-16T04:20:23.591Z,29.43
2022-08-16T04:22:59.297Z,29.46
2022-08-16T04:25:29.585Z,29.49
2022-08-16T04:27:57.284Z,29.51
2022-08-16T04:30:45.020Z,29.52
2022-08-16T04:33:15.376Z,29.54
2022-08-16T04:35:44.150Z,29.48
2022-08-16T04:38:20.951Z,29.48
2022-08-16T04:40:52.266Z,29.40
2022-08-16T04:43:22.226Z,29.44
2022-08-16T04:45:55.118Z,29.46
2022-08-16T04:48:34.179Z,29.44
2022-08-16T04:51:12.395Z,29.36
2022-08-16T04:53:50.540Z,29.38
2022-08-16T04:56:20.896Z,29.32
2022-08-16T04:58:51.513Z,29.35
2022-08-16T05:01:55.876Z,29.32
2022-08-16T05:04:19.487Z,29.30
2022-08-16T05:06:49.584Z,29.32
2022-08-16T05:09:25.172Z,29.25
2022-08-16T05:11:57.479Z,29.14
2022-08-16T05:14:46.377Z,29.19
2022-08-16T05:17:24.719Z,29.15
2022-08-16T05:19:58.993Z,29.21
2022-08-16T05:22:36.586Z,29.17
2022-08-16T05:25:09.181Z,29.18
2022-08-16T05:27:43.385Z,29.22
2022-08-16T05:30:34.572Z,29.02
2022-08-16T05:33:04.398Z,29.14
2022-08-16T05:35:31.975Z,29.07
2022-08-16T05:38:30.757Z,29.05
2022-08-16T05:41:04.534Z,29.09
2022-08-16T05:43:43.133Z,29.08
2022-08-16T05:46:30.273Z,29.09
2022-08-16T05:49:17.226Z,29.16
2022-08-16T05:51:51.200Z,29.18
2022-08-16T05:54:25.273Z,29.20
2022-08-16T05:56:59.957Z,29.25
2022-08-16T05:59:28.610Z,29.30
2022-08-16T06:01:58.607Z,29.36
2022-08-16T06:04:34.916Z,29.42
2022-08-16T06:07:09.023Z,29.41
2022-08-16T06:09:59.818Z,29.41
2022-08-16T06:12:31.738Z,29.49
2022-08-16T06:15:10.132Z,29.51
2022-08-16T06:17:44.101Z,29.50
2022-08-16T06:20:34.815Z,29.48
2022-08-16T06:23:24.167Z,29.44
2022-08-16T06:25:58.580Z,29.55
2022-08-16T06:28:34.915Z,29.57
2022-08-16T06:31:11.952Z,29.48
2022-08-16T06:33:45.651Z,29.51
2022-08-16T06:36:17.174Z,29.51
2022-08-16T06:39:06.413Z,29.39
2022-08-16T06:41:55.328Z,29.62
2022-08-16T06:44:53.706Z,29.66
2022-08-16T06:47:53.655Z,29.53
2022-08-16T06:50:29.714Z,29.67
2022-08-16T06:53:08.963Z,29.64
2022-08-16T06:55:57.766Z,29.73
2022-08-16T06:58:31.430Z,29.75
2022-08-16T07:01:09.950Z,29.82
2022-08-16T07:03:55.739Z,29.85
2022-08-16T07:06:31.543Z,29.85
2022-08-16T07:09:03.005Z,29.90
2022-08-16T07:11:46.165Z,29.89
2022-08-16T07:14:30.419Z,29.94
2022-08-16T07:17:00.591Z,30.00
2022-08-16T07:20:01.363Z,30.06
2022-08-16T07:22:38.286Z,30.18
2022-08-16T07:25:15.972Z,30.15
2022-08-16T07:27:45.329Z,30.22
2022-08-16T07:30:39.714Z,30.27
2022-08-16T07:33:15.789Z,30.31
2022-08-16T07:35:49.696Z,30.32
2022-08-16T07:38:20.150Z,30.31
2022-08-16T07:41:09.721Z,30.42
2022-08-16T07:43:41.664Z,30.40
2022-08-16T07:46:38.402Z,30.55
2022-08-16T07:49:02.366Z,30.58
2022-08-16T07:51:37.388Z,30.68
2022-08-16T07:54:10.736Z,30.75
2022-08-16T07:56:45.315Z,30.85
2022-08-16T07:59:13.845Z,30.74
2022-08-16T08:01:42.649Z,30.86
2022-08-16T08:04:13.475Z,30.83
2022-08-16T08:06:44.568Z,30.75
2022-08-16T08:09:16.221Z,30.84
2022-08-16T08:12:00.008Z,30.80
2022-08-16T08:14:37.362Z,30.88
2022-08-16T08:17:08.559Z,30.97
2022-08-16T08:19:40.303Z,31.08
2022-08-16T08:22:19.438Z,31.15
2022-08-16T08:24:58.968Z,31.64
2022-08-16T08:27:27.959Z,31.76
2022-08-16T08:30:52.391Z,32.15
2022-08-16T08:33:01.822Z,32.47
2022-08-16T08:35:37.022Z,32.51
2022-08-16T08:38:08.611Z,32.73
2022-08-16T08:40:40.803Z,32.92
2022-08-16T08:43:18.103Z,32.96
2022-08-16T08:45:52.904Z,33.23
2022-08-16T08:48:35.058Z,33.13
2022-08-16T08:51:09.723Z,33.10
2022-08-16T08:53:59.364Z,33.22
2022-08-16T08:56:35.134Z,33.55
2022-08-16T08:59:22.206Z,33.15
2022-08-16T09:01:56.274Z,33.25
2022-08-16T09:04:27.735Z,33.51
2022-08-16T09:06:56.358Z,33.38
2022-08-16T09:09:33.486Z,33.46
2022-08-16T09:12:06.999Z,33.91
2022-08-16T09:14:54.942Z,34.19
2022-08-16T09:17:48.966Z,34.32
2022-08-16T09:20:17.428Z,34.09
2022-08-16T09:22:51.287Z,34.30
2022-08-16T09:25:34.482Z,34.67
2022-08-16T09:28:09.138Z,34.50
2022-08-16T09:30:44.426Z,34.56
2022-08-16T09:33:19.916Z,34.88
2022-08-16T09:35:53.306Z,35.23
2022-08-16T09:38:32.245Z,34.84
2022-08-16T09:41:06.371Z,35.30
2022-08-16T09:43:58.570Z,35.56
2022-08-16T09:46:48.296Z,35.71
2022-08-16T09:49:19.890Z,35.43
2022-08-16T09:51:55.589Z,35.78
2022-08-16T09:54:32.554Z,36.33
2022-08-16T09:56:59.948Z,36.34
2022-08-16T09:59:30.592Z,36.61
2022-08-16T10:01:58.124Z,36.18
2022-08-16T10:04:32.975Z,36.27
2022-08-16T10:07:15.008Z,35.31
2022-08-16T10:09:55.104Z,36.12
2022-08-16T10:12:44.537Z,36.26
2022-08-16T10:15:17.672Z,35.76
2022-08-16T10:18:01.245Z,35.46
2022-08-16T10:20:34.982Z,35.32
2022-08-16T10:23:07.078Z,35.36
2022-08-16T10:27:19.334Z,35.20
2022-08-16T10:28:32.563Z,35.06
2022-08-16T10:31:14.727Z,34.96
2022-08-16T10:33:58.813Z,34.49
2022-08-16T10:36:38.969Z,34.69
2022-08-16T10:39:08.505Z,34.64
2022-08-16T10:41:36.247Z,34.57
2022-08-16T10:44:05.033Z,34.55
2022-08-16T10:46:41.584Z,34.54
2022-08-16T10:49:12.074Z,34.56
2022-08-16T10:52:03.481Z,34.96
2022-08-16T10:54:29.238Z,35.38
2022-08-16T10:56:59.162Z,35.58
2022-08-16T10:59:45.811Z,35.49
2022-08-16T11:02:59.115Z,35.79
2022-08-16T11:05:14.124Z,35.83
2022-08-16T11:07:52.513Z,35.72
2022-08-16T11:16:26.513Z,35.08
2022-08-16T11:19:05.940Z,34.73
2022-08-16T11:22:22.908Z,34.91
2022-08-16T11:24:41.244Z,34.83
2022-08-16T11:27:20.442Z,34.36
2022-08-16T11:29:55.218Z,33.77
2022-08-16T11:32:31.940Z,34.14
2022-08-16T11:35:15.702Z,34.06
2022-08-16T11:40:58.068Z,34.08
2022-08-16T11:43:34.923Z,34.03
2022-08-16T11:46:44.879Z,33.91
2022-08-16T11:49:21.959Z,33.96
2022-08-16T11:52:00.070Z,33.75
2022-08-16T11:54:38.048Z,33.92
2022-08-16T11:57:23.294Z,33.91
2022-08-16T12:00:08.431Z,33.82
2022-08-16T12:03:05.474Z,34.53
2022-08-16T12:05:52.119Z,34.97
2022-08-16T12:08:27.941Z,35.10
2022-08-16T12:11:09.138Z,35.44
2022-08-16T12:13:43.587Z,35.79
2022-08-16T12:16:30.965Z,36.14
2022-08-16T12:19:13.641Z,36.43
2022-08-16T12:22:18.626Z,36.21
2022-08-16T12:27:55.473Z,36.98
2022-08-16T12:30:44.141Z,36.95
2022-08-16T12:33:25.514Z,36.88
2022-08-16T12:35:53.972Z,36.43
2022-08-16T12:38:41.759Z,36.42
2022-08-16T12:41:08.358Z,36.08
2022-08-16T12:43:35.717Z,35.32
2022-08-16T12:46:05.713Z,35.25
2022-08-16T12:48:55.936Z,35.15
2022-08-16T12:51:59.815Z,34.50
2022-08-16T12:54:22.371Z,34.76
2022-08-16T12:56:50.384Z,35.25
2022-08-16T12:59:20.347Z,35.50
2022-08-16T13:01:50.661Z,35.99
2022-08-16T13:04:28.390Z,35.98
2022-08-16T13:09:32.000Z,36.77
2022-08-16T13:12:21.019Z,37.24
2022-08-16T13:14:50.076Z,37.22
2022-08-16T13:17:21.615Z,37.44
2022-08-16T13:20:08.506Z,37.84
2022-08-16T13:25:19.450Z,37.95
2022-08-16T13:28:03.411Z,38.06
2022-08-16T13:30:42.098Z,37.85
2022-08-16T13:33:24.809Z,38.29
2022-08-16T13:35:59.497Z,38.38
2022-08-16T13:38:36.448Z,37.37
2022-08-16T13:41:11.975Z,37.69
2022-08-16T13:43:40.977Z,37.97
2022-08-16T13:46:08.387Z,38.15
2022-08-16T13:48:43.977Z,37.99
2022-08-16T13:51:18.477Z,38.08
2022-08-16T13:53:59.256Z,37.95
2022-08-16T13:56:36.918Z,37.98
2022-08-16T13:59:20.177Z,37.65
2022-08-16T14:01:55.079Z,37.98
2022-08-16T14:04:36.501Z,38.01
2022-08-16T14:07:09.572Z,37.57
2022-08-16T14:09:38.307Z,37.13
2022-08-16T14:12:18.071Z,37.09
2022-08-16T14:14:47.987Z,36.63
2022-08-16T14:17:16.533Z,36.63
2022-08-16T14:19:46.269Z,36.75
2022-08-16T14:22:31.057Z,36.83
2022-08-16T14:25:01.440Z,36.85
2022-08-16T14:27:31.182Z,36.45
2022-08-16T14:30:02.435Z,36.36
2022-08-16T14:32:34.124Z,35.56
2022-08-16T14:35:15.280Z,35.43
2022-08-16T14:37:44.466Z,35.33
2022-08-16T14:40:14.287Z,35.57
2022-08-16T14:42:45.084Z,35.33
2022-08-16T14:45:18.921Z,35.30
2022-08-16T14:47:46.318Z,35.31
2022-08-16T14:50:20.135Z,35.17
2022-08-16T14:53:04.415Z,35.12
2022-08-16T14:55:33.747Z,35.19
2022-08-16T14:58:05.203Z,35.28
2022-08-16T15:00:36.719Z,35.37
2022-08-16T15:03:09.712Z,35.22
2022-08-16T15:05:38.662Z,35.41
2022-08-16T15:08:06.251Z,35.39
2022-08-16T15:10:37.289Z,35.27
2022-08-16T15:13:09.410Z,35.16
2022-08-16T15:15:38.304Z,34.97
2022-08-16T15:18:06.549Z,34.85
2022-08-16T15:20:41.791Z,34.86
2022-08-16T15:23:10.154Z,34.76
2022-08-16T15:25:43.292Z,34.64
2022-08-16T15:28:30.604Z,34.77
2022-08-16T15:31:00.881Z,34.53
2022-08-16T15:33:32.269Z,34.33
2022-08-16T15:36:00.343Z,34.31
2022-08-16T15:38:54.668Z,34.26
2022-08-16T15:41:42.769Z,34.26
2022-08-16T15:44:15.550Z,34.11
2022-08-16T15:46:55.777Z,34.11
2022-08-16T15:49:37.659Z,34.09
2022-08-16T15:52:29.333Z,34.08
2022-08-16T15:55:00.605Z,34.16
2022-08-16T15:57:41.472Z,34.11
2022-08-16T16:00:15.366Z,34.14
2022-08-16T16:02:44.717Z,34.05
2022-08-16T16:05:12.508Z,34.14
2022-08-16T16:07:56.157Z,33.88
2022-08-16T16:10:29.453Z,33.92
2022-08-16T16:13:00.665Z,33.81
2022-08-16T16:15:33.806Z,33.82
2022-08-16T16:18:09.306Z,33.78
2022-08-16T16:20:48.178Z,33.72
2022-08-16T16:23:21.273Z,33.69
2022-08-16T16:25:55.065Z,33.57
2022-08-16T16:29:05.313Z,33.41
2022-08-16T16:31:18.561Z,33.13
2022-08-16T16:33:50.381Z,33.66
2022-08-16T16:36:29.352Z,33.76
2022-08-16T16:38:58.600Z,34.05
2022-08-16T16:41:28.735Z,34.04
2022-08-16T16:44:01.214Z,33.76
2022-08-16T16:46:42.555Z,33.74
2022-08-16T16:49:14.025Z,33.97
2022-08-16T16:51:44.481Z,33.94
2022-08-16T16:54:27.450Z,33.94
2022-08-16T16:56:57.740Z,33.60
2022-08-16T16:59:25.654Z,33.83
2022-08-16T17:02:38.217Z,33.76
2022-08-16T17:04:44.849Z,33.91
2022-08-16T17:07:12.453Z,34.02
2022-08-16T17:09:41.064Z,33.93
2022-08-16T17:12:17.632Z,33.96
2022-08-16T17:14:53.812Z,33.97
2022-08-16T17:17:21.699Z,33.76
2022-08-16T17:19:50.118Z,33.77
2022-08-16T17:22:24.414Z,33.81
2022-08-16T17:25:01.119Z,33.72
2022-08-16T17:27:33.847Z,33.88
2022-08-16T17:30:15.587Z,33.85
2022-08-16T17:32:54.376Z,33.79
2022-08-16T17:35:34.780Z,33.94
2022-08-16T17:38:07.136Z,33.98
2022-08-16T17:40:55.427Z,34.00
2022-08-16T17:43:33.520Z,33.79
2022-08-16T17:46:02.271Z,33.89
2022-08-16T17:48:35.851Z,33.92
2022-08-16T17:51:06.166Z,33.92
2022-08-16T17:53:36.239Z,33.84
2022-08-16T17:56:05.815Z,33.78
2022-08-16T17:58:33.477Z,33.67
2022-08-16T18:01:04.059Z,33.65
2022-08-16T18:04:08.028Z,33.58
2022-08-16T18:06:24.849Z,33.59
2022-08-16T18:09:01.693Z,33.38
2022-08-16T18:11:37.025Z,33.40
2022-08-16T18:14:11.974Z,33.12
2022-08-16T18:16:42.392Z,33.29
2022-08-16T18:19:11.544Z,33.20
2022-08-16T18:21:57.470Z,33.19
2022-08-16T18:24:27.915Z,33.19
2022-08-16T18:26:55.181Z,33.12
2022-08-16T18:29:23.105Z,33.03
2022-08-16T18:31:51.844Z,32.96
2022-08-16T18:34:21.861Z,33.04
2022-08-16T18:36:49.703Z,32.99
2022-08-16T18:39:17.243Z,32.90
2022-08-16T18:41:47.843Z,32.96
2022-08-16T18:44:25.483Z,32.99
2022-08-16T18:46:55.080Z,32.93
2022-08-16T18:49:22.701Z,32.82
2022-08-16T18:51:51.096Z,32.83
2022-08-16T18:54:19.339Z,32.81
2022-08-16T18:56:56.184Z,32.56
2022-08-16T18:59:30.927Z,32.68
2022-08-16T19:02:04.282Z,32.65
2022-08-16T19:04:56.590Z,32.52
2022-08-16T19:07:31.354Z,32.61
2022-08-16T19:10:01.445Z,32.45
2022-08-16T19:12:38.272Z,32.38
2022-08-16T19:15:15.674Z,32.48
2022-08-16T19:17:46.423Z,32.49
2022-08-16T19:20:19.637Z,32.48
2022-08-16T19:23:05.813Z,32.36
2022-08-16T19:25:48.623Z,32.43
2022-08-16T19:28:49.073Z,32.22
2022-08-16T19:31:23.254Z,32.34
2022-08-16T19:33:57.766Z,32.13
2022-08-16T19:36:35.211Z,32.11
2022-08-16T19:39:10.630Z,32.15
2022-08-16T19:41:41.797Z,32.10
2022-08-16T19:44:11.382Z,32.18
2022-08-16T19:46:55.832Z,32.16
2022-08-16T19:49:23.223Z,32.20
2022-08-16T19:51:52.219Z,32.05
2022-08-16T19:54:19.400Z,32.11
2022-08-16T19:56:47.231Z,32.00
2022-08-16T19:59:20.529Z,32.14
2022-08-16T20:01:52.594Z,31.91
2022-08-16T20:04:22.510Z,31.90
2022-08-16T20:06:52.511Z,31.93
2022-08-16T20:09:22.306Z,32.05
2022-08-16T20:11:58.589Z,32.09
2022-08-16T20:14:26.640Z,32.07
2022-08-16T20:16:56.331Z,31.90
2022-08-16T20:19:26.338Z,31.97
2022-08-16T20:21:56.838Z,32.04
2022-08-16T20:24:35.529Z,31.97
2022-08-16T20:27:08.163Z,31.96
2022-08-16T20:29:40.178Z,32.02
2022-08-16T20:32:10.093Z,32.01
2022-08-16T20:34:38.185Z,31.74
2022-08-16T20:37:06.662Z,31.90
2022-08-16T20:39:36.013Z,31.94
2022-08-16T20:42:03.538Z,31.86
2022-08-16T20:44:33.506Z,31.88
2022-08-16T20:47:01.514Z,31.90
2022-08-16T20:49:31.909Z,31.77
2022-08-16T20:51:59.911Z,31.82
2022-08-16T20:54:30.729Z,31.73
2022-08-16T20:56:58.388Z,31.80
2022-08-16T20:59:26.455Z,31.71
2022-08-16T21:01:54.414Z,31.69
2022-08-16T21:04:25.899Z,31.77
2022-08-16T21:06:54.994Z,31.64
2022-08-16T21:09:26.073Z,31.75
2022-08-16T21:12:00.536Z,31.37
2022-08-16T21:14:29.856Z,31.44
2022-08-16T21:17:06.270Z,31.51
2022-08-16T21:19:34.524Z,31.45
2022-08-16T21:22:22.332Z,31.34
2022-08-16T21:24:53.787Z,31.50
2022-08-16T21:27:21.515Z,31.43
2022-08-16T21:29:55.623Z,31.54
2022-08-16T21:32:35.708Z,31.57
2022-08-16T21:35:16.467Z,31.59
2022-08-16T21:37:59.957Z,31.48
2022-08-16T21:40:37.190Z,31.44
2022-08-16T21:43:13.077Z,31.49
2022-08-16T21:45:42.564Z,31.49
2022-08-16T21:48:14.227Z,31.47
2022-08-16T21:50:44.639Z,31.57
2022-08-16T21:53:17.674Z,31.55
2022-08-16T21:55:48.204Z,31.59
2022-08-16T21:58:16.443Z,31.56
2022-08-16T22:00:44.062Z,31.60
2022-08-16T22:03:15.255Z,31.58
2022-08-16T22:05:44.705Z,31.42
2022-08-16T22:08:12.385Z,31.48
2022-08-16T22:11:04.164Z,31.42
2022-08-16T22:13:32.030Z,31.38
2022-08-16T22:15:59.570Z,31.51
2022-08-16T22:18:26.936Z,31.52
2022-08-16T22:20:55.398Z,31.55
2022-08-16T22:23:25.467Z,31.55
2022-08-16T22:25:55.469Z,31.57
2022-08-16T22:28:24.768Z,31.60
2022-08-16T22:30:53.347Z,31.54
2022-08-16T22:33:25.058Z,31.54
2022-08-16T22:35:55.817Z,31.55
2022-08-16T22:38:54.411Z,31.56
2022-08-16T22:41:11.874Z,31.56
2022-08-16T22:43:39.894Z,31.54
2022-08-16T22:46:07.958Z,31.54
2022-08-16T22:48:39.244Z,31.49
2022-08-16T22:51:10.558Z,31.47
2022-08-16T22:53:38.389Z,31.45
2022-08-16T22:56:06.007Z,31.43
2022-08-16T22:58:37.126Z,31.48
2022-08-16T23:01:10.773Z,31.34
2022-08-16T23:03:39.011Z,31.44
2022-08-16T23:06:07.429Z,31.48
2022-08-16T23:08:40.611Z,31.46
2022-08-16T23:11:13.969Z,31.22
2022-08-16T23:13:53.184Z,31.32
2022-08-16T23:16:34.615Z,31.32
2022-08-16T23:19:07.243Z,31.22
2022-08-16T23:21:37.626Z,31.26
2022-08-16T23:24:06.769Z,31.25
2022-08-16T23:26:44.589Z,31.12
2022-08-16T23:29:23.607Z,31.11
2022-08-16T23:31:59.788Z,31.10
2022-08-16T23:34:29.160Z,31.11
2022-08-16T23:36:57.658Z,31.07
2022-08-16T23:39:25.383Z,31.07
2022-08-16T23:41:55.763Z,31.08
2022-08-16T23:44:44.095Z,31.07
2022-08-16T23:47:14.600Z,31.06
2022-08-16T23:49:57.857Z,30.93
2022-08-16T23:52:42.293Z,31.02
2022-08-16T23:55:17.541Z,30.95
2022-08-16T23:57:46.589Z,31.03
